createdAt,value
2023-04-08T00:00:51.614Z,102234.50
2023-04-08T00:03:21.641Z,102229.06
2023-04-08T00:05:49.620Z,102233.72
2023-04-08T00:08:17.386Z,102232.59
2023-04-08T00:10:45.418Z,102236.47
2023-04-08T00:13:13.333Z,102236.22
2023-04-08T00:15:41.942Z,102236.66
2023-04-08T00:18:09.827Z,102235.56
2023-04-08T00:20:39.007Z,102239.50
2023-04-08T00:23:06.858Z,102239.19
2023-04-08T00:25:34.639Z,102237.97
2023-04-08T00:28:02.531Z,102240.22
2023-04-08T00:30:31.393Z,102232.84
2023-04-08T00:32:59.720Z,102232.44
2023-04-08T00:35:27.737Z,102233.63
2023-04-08T00:37:57.009Z,102238.34
2023-04-08T00:40:24.814Z,102241.91
2023-04-08T00:42:52.601Z,102243.09
2023-04-08T00:45:20.541Z,102242.81
2023-04-08T00:47:52.599Z,102250.53
2023-04-08T00:50:21.168Z,102249.47
2023-04-08T00:52:48.930Z,102251.41
2023-04-08T00:55:18.391Z,102251.41
2023-04-08T00:57:47.167Z,102248.72
2023-04-08T01:00:16.335Z,102250.31
2023-04-08T01:02:48.500Z,102249.16
2023-04-08T01:05:25.992Z,102251.94
2023-04-08T01:07:54.054Z,102251.88
2023-04-08T01:10:27.667Z,102254.16
2023-04-08T01:12:57.455Z,102254.97
2023-04-08T01:15:27.255Z,102256.84
2023-04-08T01:17:56.588Z,102254.91
2023-04-08T01:20:26.334Z,102263.13
2023-04-08T01:23:07.383Z,102265.84
2023-04-08T01:25:37.986Z,102267.94
2023-04-08T01:28:09.853Z,102266.00
2023-04-08T01:30:39.581Z,102254.75
2023-04-08T01:33:08.455Z,102259.38
2023-04-08T01:35:37.258Z,102266.75
2023-04-08T01:38:06.842Z,102262.13
2023-04-08T01:40:36.247Z,102262.22
2023-04-08T01:43:06.619Z,102268.09
2023-04-08T01:45:35.791Z,102266.56
2023-04-08T01:48:04.689Z,102273.56
2023-04-08T01:50:33.348Z,102268.09
2023-04-08T01:53:03.237Z,102275.09
2023-04-08T01:55:32.501Z,102275.44
2023-04-08T01:58:02.441Z,102276.59
2023-04-08T02:00:32.202Z,102283.25
2023-04-08T02:03:02.308Z,102276.72
2023-04-08T02:05:30.441Z,102277.50
2023-04-08T02:07:58.187Z,102266.19
2023-04-08T02:10:26.137Z,102266.63
2023-04-08T02:12:53.936Z,102266.28
2023-04-08T02:15:21.958Z,102270.97
2023-04-08T02:17:56.117Z,102267.88
2023-04-08T02:20:32.403Z,102269.88
2023-04-08T02:23:07.134Z,102271.34
2023-04-08T02:25:38.689Z,102274.03
2023-04-08T02:28:10.618Z,102280.63
2023-04-08T02:30:42.381Z,102277.94
2023-04-08T02:33:11.228Z,102277.16
2023-04-08T02:35:42.449Z,102283.41
2023-04-08T02:38:10.287Z,102273.31
2023-04-08T02:40:38.512Z,102282.66
2023-04-08T02:43:06.390Z,102279.56
2023-04-08T02:45:39.070Z,102279.59
2023-04-08T02:48:07.313Z,102284.31
2023-04-08T02:50:35.524Z,102282.38
2023-04-08T02:53:05.466Z,102284.28
2023-04-08T02:55:34.477Z,102290.13
2023-04-08T02:58:02.264Z,102292.09
2023-04-08T03:00:30.051Z,102297.50
2023-04-08T03:02:58.047Z,102300.63
2023-04-08T03:05:27.244Z,102298.28
2023-04-08T03:07:55.049Z,102301.41
2023-04-08T03:10:24.236Z,102306.06
2023-04-08T03:12:52.121Z,102301.00
2023-04-08T03:15:20.459Z,102302.94
2023-04-08T03:17:48.239Z,102304.91
2023-04-08T03:20:16.186Z,102295.19
2023-04-08T03:22:43.948Z,102302.16
2023-04-08T03:25:11.888Z,102296.00
2023-04-08T03:27:41.006Z,102294.84
2023-04-08T03:30:09.763Z,102295.25
2023-04-08T03:32:37.725Z,102295.66
2023-04-08T03:35:06.455Z,102294.50
2023-04-08T03:37:34.267Z,102301.13
2023-04-08T03:40:02.035Z,102301.91
2023-04-08T03:42:29.783Z,102295.72
2023-04-08T03:44:59.039Z,102301.53
2023-04-08T03:47:27.298Z,102309.69
2023-04-08T03:49:55.485Z,102306.97
2023-04-08T03:52:24.322Z,102301.16
2023-04-08T03:54:52.069Z,102300.78
2023-04-08T03:57:19.820Z,102310.09
2023-04-08T03:59:47.569Z,102309.31
2023-04-08T04:02:16.745Z,102311.66
2023-04-08T04:04:44.605Z,102319.06
2023-04-08T04:07:12.351Z,102331.09
2023-04-08T04:09:40.106Z,102322.56
2023-04-08T04:12:07.873Z,102333.03
2023-04-08T04:14:35.893Z,102332.63
2023-04-08T04:17:03.699Z,102338.84
2023-04-08T04:19:33.167Z,102338.09
2023-04-08T04:22:00.950Z,102331.91
2023-04-08T04:24:28.751Z,102347.41
2023-04-08T04:26:56.558Z,102347.03
2023-04-08T04:29:24.405Z,102353.22
2023-04-08T04:31:52.205Z,102352.44
2023-04-08T04:34:19.984Z,102357.50
2023-04-08T04:36:49.069Z,102354.38
2023-04-08T04:39:16.830Z,102360.25
2023-04-08T04:41:44.763Z,102359.84
2023-04-08T04:44:12.537Z,102366.41
2023-04-08T04:46:40.486Z,102364.09
2023-04-08T04:49:08.354Z,102366.41
2023-04-08T04:51:36.110Z,102368.00
2023-04-08T04:54:05.424Z,102373.41
2023-04-08T04:56:33.240Z,102378.81
2023-04-08T04:59:01.030Z,102377.66
2023-04-08T05:01:29.136Z,102382.28
2023-04-08T05:03:57.232Z,102386.13
2023-04-08T05:06:26.437Z,102378.41
2023-04-08T05:08:54.388Z,102386.94
2023-04-08T05:11:23.510Z,102381.91
2023-04-08T05:13:51.404Z,102387.72
2023-04-08T05:16:19.310Z,102388.50
2023-04-08T05:18:47.078Z,102395.81
2023-04-08T05:21:14.880Z,102395.44
2023-04-08T05:23:42.636Z,102397.00
2023-04-08T05:26:10.516Z,102401.25
2023-04-08T05:28:39.600Z,102405.09
2023-04-08T05:31:07.489Z,102395.03
2023-04-08T05:33:35.260Z,102395.03
2023-04-08T05:36:03.189Z,102407.81
2023-04-08T05:38:30.991Z,102403.16
2023-04-08T05:40:58.731Z,102401.63
2023-04-08T05:43:26.612Z,102397.72
2023-04-08T05:45:56.106Z,102403.16
2023-04-08T05:48:23.896Z,102414.38
2023-04-08T05:50:51.671Z,102420.19
2023-04-08T05:53:19.506Z,102408.19
2023-04-08T05:55:47.276Z,102419.41
2023-04-08T05:58:15.078Z,102415.13
2023-04-08T06:00:42.875Z,102424.03
2023-04-08T06:03:12.314Z,102416.69
2023-04-08T06:05:40.550Z,102422.13
2023-04-08T06:08:10.831Z,102418.66
2023-04-08T06:10:39.022Z,102417.09
2023-04-08T06:13:06.800Z,102424.84
2023-04-08T06:15:34.585Z,102417.09
2023-04-08T06:18:02.457Z,102427.53
2023-04-08T06:20:31.663Z,102424.47
2023-04-08T06:22:59.443Z,102427.56
2023-04-08T06:25:27.337Z,102427.59
2023-04-08T06:27:55.258Z,102436.50
2023-04-08T06:30:23.315Z,102442.31
2023-04-08T06:32:51.110Z,102443.88
2023-04-08T06:35:19.341Z,102451.28
2023-04-08T06:37:48.489Z,102447.78
2023-04-08T06:40:16.355Z,102460.56
2023-04-08T06:42:44.505Z,102466.78
2023-04-08T06:45:35.500Z,102479.47
2023-04-08T06:48:03.476Z,102471.97
2023-04-08T06:50:31.565Z,102478.78
2023-04-08T06:53:00.734Z,102479.81
2023-04-08T06:55:28.515Z,102487.03
2023-04-08T06:57:56.277Z,102476.63
2023-04-08T07:00:24.099Z,102486.97
2023-04-08T07:02:52.190Z,102487.13
2023-04-08T07:05:20.085Z,102495.16
2023-04-08T07:07:47.836Z,102497.81
2023-04-08T07:10:17.300Z,102502.78
2023-04-08T07:12:45.403Z,102493.41
2023-04-08T07:15:13.203Z,102507.25
2023-04-08T07:17:40.981Z,102501.16
2023-04-08T07:20:09.641Z,102510.00
2023-04-08T07:22:37.478Z,102508.22
2023-04-08T07:25:05.645Z,102515.75
2023-04-08T07:27:36.297Z,102519.09
2023-04-08T07:30:04.986Z,102516.63
2023-04-08T07:32:33.933Z,102526.59
2023-04-08T07:35:02.064Z,102517.53
2023-04-08T07:37:29.923Z,102522.09
2023-04-08T07:39:57.773Z,102525.47
2023-04-08T07:42:25.949Z,102523.00
2023-04-08T07:44:55.389Z,102534.81
2023-04-08T07:47:23.272Z,102524.38
2023-04-08T07:49:51.295Z,102526.63
2023-04-08T07:52:19.192Z,102527.84
2023-04-08T07:54:47.121Z,102521.81
2023-04-08T07:57:14.970Z,102522.69
2023-04-08T07:59:43.115Z,102527.00
2023-04-08T08:02:12.443Z,102534.56
2023-04-08T08:04:40.857Z,102523.19
2023-04-08T08:07:08.985Z,102527.28
2023-04-08T08:09:36.828Z,102531.19
2023-04-08T08:12:04.779Z,102540.63
2023-04-08T08:14:32.618Z,102536.06
2023-04-08T08:17:01.493Z,102530.44
2023-04-08T08:19:30.694Z,102532.41
2023-04-08T08:21:59.081Z,102523.22
2023-04-08T08:24:27.454Z,102525.88
2023-04-08T08:26:55.541Z,102534.69
2023-04-08T08:29:23.296Z,102535.28
2023-04-08T08:31:51.145Z,102547.59
2023-04-08T08:34:18.979Z,102540.28
2023-04-08T08:36:48.103Z,102550.53
2023-04-08T08:39:15.861Z,102544.16
2023-04-08T08:41:43.664Z,102544.44
2023-04-08T08:44:12.093Z,102550.44
2023-04-08T08:46:45.317Z,102557.47
2023-04-08T08:49:13.520Z,102549.69
2023-04-08T08:51:41.778Z,102546.19
2023-04-08T08:54:10.899Z,102545.41
2023-04-08T08:56:38.756Z,102556.75
2023-04-08T08:59:06.607Z,102558.50
2023-04-08T09:01:35.818Z,102558.94
2023-04-08T09:04:16.955Z,102553.91
2023-04-08T09:06:46.606Z,102561.44
2023-04-08T09:09:16.011Z,102564.50
2023-04-08T09:11:45.089Z,102559.34
2023-04-08T09:14:20.617Z,102563.59
2023-04-08T09:16:48.850Z,102559.91
2023-04-08T09:19:16.720Z,102564.59
2023-04-08T09:21:44.563Z,102563.63
2023-04-08T09:24:30.291Z,102568.47
2023-04-08T09:26:58.073Z,102572.00
2023-04-08T09:29:29.919Z,102572.00
2023-04-08T09:32:01.916Z,102571.78
2023-04-08T09:34:32.379Z,102578.31
2023-04-08T09:37:00.190Z,102586.00
2023-04-08T09:39:27.927Z,102584.19
2023-04-08T09:42:01.105Z,102581.31
2023-04-08T09:44:31.158Z,102586.19
2023-04-08T09:47:06.804Z,102582.81
2023-04-08T09:49:39.311Z,102576.09
2023-04-08T09:52:10.928Z,102571.75
2023-04-08T09:54:45.456Z,102579.81
2023-04-08T09:57:22.902Z,102578.72
2023-04-08T09:59:57.166Z,102580.66
2023-04-08T10:02:31.607Z,102581.00
2023-04-08T10:05:01.291Z,102578.94
2023-04-08T10:07:29.141Z,102579.47
2023-04-08T10:09:58.757Z,102575.34
2023-04-08T10:12:27.939Z,102570.69
2023-04-08T10:15:24.070Z,102570.63
2023-04-08T10:17:52.295Z,102574.03
2023-04-08T10:20:42.904Z,102559.25
2023-04-08T10:23:11.467Z,102559.56
2023-04-08T10:25:41.380Z,102557.44
2023-04-08T10:28:29.872Z,102557.16
2023-04-08T10:30:58.690Z,102549.59
2023-04-08T10:33:34.628Z,102559.47
2023-04-08T10:36:11.314Z,102567.53
2023-04-08T10:38:39.289Z,102563.16
2023-04-08T10:41:07.172Z,102566.03
2023-04-08T10:43:36.617Z,102557.72
2023-04-08T10:46:05.014Z,102558.75
2023-04-08T10:48:33.056Z,102566.53
2023-04-08T10:51:02.023Z,102565.50
2023-04-08T10:53:31.211Z,102559.41
2023-04-08T10:56:07.114Z,102555.16
2023-04-08T10:58:37.464Z,102546.31
2023-04-08T11:01:07.435Z,102555.91
2023-04-08T11:03:37.106Z,102546.09
2023-04-08T11:06:05.834Z,102548.84
2023-04-08T11:08:34.741Z,102549.78
2023-04-08T11:11:02.857Z,102549.38
2023-04-08T11:13:31.795Z,102549.63
2023-04-08T11:16:02.638Z,102551.91
2023-04-08T11:18:32.257Z,102538.88
2023-04-08T11:21:00.557Z,102544.78
2023-04-08T11:23:28.733Z,102551.88
2023-04-08T11:25:57.092Z,102542.75
2023-04-08T11:28:26.048Z,102542.22
2023-04-08T11:30:55.256Z,102544.97
2023-04-08T11:33:26.273Z,102543.50
2023-04-08T11:35:54.080Z,102539.78
2023-04-08T11:38:24.397Z,102536.59
2023-04-08T11:40:55.444Z,102544.03
2023-04-08T11:43:23.568Z,102540.16
2023-04-08T11:45:51.628Z,102545.31
2023-04-08T11:48:19.512Z,102548.09
2023-04-08T11:50:50.739Z,102543.59
2023-04-08T11:53:20.418Z,102544.84
2023-04-08T11:55:48.890Z,102545.75
2023-04-08T11:58:17.443Z,102544.81
2023-04-08T12:00:45.629Z,102550.31
2023-04-08T12:03:14.172Z,102548.44
2023-04-08T12:05:42.534Z,102548.78
2023-04-08T12:08:11.778Z,102541.72
2023-04-08T12:10:39.630Z,102546.56
2023-04-08T12:13:07.450Z,102541.16
2023-04-08T12:15:35.265Z,102547.91
2023-04-08T12:18:03.234Z,102540.91
2023-04-08T12:20:31.092Z,102542.84
2023-04-08T12:22:58.851Z,102542.25
2023-04-08T12:25:29.118Z,102538.19
2023-04-08T12:27:56.905Z,102541.84
2023-04-08T12:30:24.735Z,102545.31
2023-04-08T12:32:55.234Z,102540.72
2023-04-08T12:35:23.156Z,102538.88
2023-04-08T12:37:51.087Z,102537.56
2023-04-08T12:40:19.220Z,102533.81
2023-04-08T12:42:48.514Z,102537.28
2023-04-08T12:45:16.282Z,102528.78
2023-04-08T12:47:44.072Z,102533.34
2023-04-08T12:50:11.919Z,102529.78
2023-04-08T12:52:39.673Z,102541.88
2023-04-08T12:55:08.412Z,102532.78
2023-04-08T12:57:36.698Z,102537.28
2023-04-08T13:00:07.040Z,102530.22
2023-04-08T13:02:34.957Z,102535.00
2023-04-08T13:05:02.899Z,102533.09
2023-04-08T13:07:30.700Z,102543.59
2023-04-08T13:09:58.477Z,102535.78
2023-04-08T13:12:27.072Z,102529.75
2023-04-08T13:14:55.217Z,102541.41
2023-04-08T13:17:24.429Z,102534.31
2023-04-08T13:19:52.493Z,102544.19
2023-04-08T13:22:20.318Z,102539.09
2023-04-08T13:24:48.077Z,102538.44
2023-04-08T13:27:16.145Z,102537.75
2023-04-08T13:29:44.028Z,102534.41
2023-04-08T13:32:12.036Z,102530.22
2023-04-08T13:34:42.469Z,102531.63
2023-04-08T13:37:10.398Z,102530.16
2023-04-08T13:39:38.145Z,102530.84
2023-04-08T13:42:05.947Z,102527.06
2023-04-08T13:44:34.063Z,102526.13
2023-04-08T13:47:01.974Z,102524.09
2023-04-08T13:49:29.781Z,102516.72
2023-04-08T13:51:58.967Z,102517.59
2023-04-08T13:54:27.292Z,102523.25
2023-04-08T13:56:55.095Z,102520.47
2023-04-08T13:59:22.872Z,102517.34
2023-04-08T14:01:54.050Z,102521.06
2023-04-08T14:04:22.602Z,102517.53
2023-04-08T14:06:51.508Z,102516.28
2023-04-08T14:09:20.928Z,102513.31
2023-04-08T14:11:48.723Z,102510.00
2023-04-08T14:14:16.806Z,102513.75
2023-04-08T14:16:45.061Z,102509.34
2023-04-08T14:19:13.248Z,102506.31
2023-04-08T14:21:41.245Z,102507.72
2023-04-08T14:24:09.108Z,102506.56
2023-04-08T14:26:38.486Z,102503.22
2023-04-08T14:29:07.365Z,102500.34
2023-04-08T14:31:36.232Z,102496.91
2023-04-08T14:34:04.518Z,102505.59
2023-04-08T14:36:32.810Z,102501.53
2023-04-08T14:39:00.814Z,102504.88
2023-04-08T14:41:28.613Z,102496.59
2023-04-08T14:43:57.779Z,102501.81
2023-04-08T14:46:28.853Z,102504.91
2023-04-08T14:48:57.079Z,102502.88
2023-04-08T14:51:24.889Z,102501.72
2023-04-08T14:53:52.665Z,102502.47
2023-04-08T14:56:20.585Z,102492.78
2023-04-08T14:58:48.360Z,102495.41
2023-04-08T15:01:17.552Z,102492.69
2023-04-08T15:03:45.396Z,102493.75
2023-04-08T15:06:17.616Z,102493.06
2023-04-08T15:08:45.738Z,102495.28
2023-04-08T15:11:13.644Z,102491.81
2023-04-08T15:13:41.597Z,102486.91
2023-04-08T15:16:09.444Z,102485.59
2023-04-08T15:18:38.651Z,102491.28
2023-04-08T15:21:06.539Z,102480.97
2023-04-08T15:23:34.342Z,102472.38
2023-04-08T15:26:02.188Z,102484.97
2023-04-08T15:28:30.269Z,102486.03
2023-04-08T15:30:58.102Z,102483.00
2023-04-08T15:33:26.121Z,102484.03
2023-04-08T15:35:55.961Z,102487.16
2023-04-08T15:38:23.939Z,102490.47
2023-04-08T15:40:51.802Z,102484.91
2023-04-08T15:43:19.575Z,102494.69
2023-04-08T15:45:48.183Z,102479.38
2023-04-08T15:48:15.971Z,102484.81
2023-04-08T15:50:43.839Z,102487.06
2023-04-08T15:53:13.064Z,102489.34
2023-04-08T15:55:41.780Z,102488.41
2023-04-08T15:58:09.650Z,102489.56
2023-04-08T16:00:37.580Z,102481.06
2023-04-08T16:03:08.349Z,102485.84
2023-04-08T16:05:39.150Z,102493.66
2023-04-08T16:08:07.605Z,102483.25
2023-04-08T16:10:37.301Z,102489.41
2023-04-08T16:13:05.059Z,102491.44
2023-04-08T16:15:34.083Z,102481.97
2023-04-08T16:18:03.022Z,102489.97
2023-04-08T16:20:30.989Z,102486.13
2023-04-08T16:22:58.808Z,102498.53
2023-04-08T16:25:27.839Z,102504.38
2023-04-08T16:27:57.490Z,102490.56
2023-04-08T16:30:25.275Z,102491.31
2023-04-08T16:32:53.132Z,102486.56
2023-04-08T16:35:22.321Z,102487.03
2023-04-08T16:37:50.169Z,102479.22
2023-04-08T16:40:18.141Z,102482.16
2023-04-08T16:42:46.071Z,102484.59
2023-04-08T16:45:15.774Z,102479.22
2023-04-08T16:47:44.450Z,102490.22
2023-04-08T16:50:12.694Z,102485.50
2023-04-08T16:52:40.447Z,102483.94
2023-04-08T16:55:09.394Z,102492.19
2023-04-08T16:57:37.286Z,102487.28
2023-04-08T17:00:06.013Z,102498.31
2023-04-08T17:02:35.391Z,102485.88
2023-04-08T17:05:03.291Z,102488.19
2023-04-08T17:07:31.830Z,102491.56
2023-04-08T17:09:59.630Z,102493.50
2023-04-08T17:12:27.740Z,102493.06
2023-04-08T17:14:55.765Z,102496.13
2023-04-08T17:17:23.638Z,102492.75
2023-04-08T17:19:53.088Z,102501.50
2023-04-08T17:22:21.458Z,102506.41
2023-04-08T17:24:49.194Z,102497.81
2023-04-08T17:27:16.958Z,102496.75
2023-04-08T17:29:44.790Z,102493.81
2023-04-08T17:32:13.636Z,102494.25
2023-04-08T17:34:41.767Z,102498.63
2023-04-08T17:37:11.177Z,102501.81
2023-04-08T17:39:40.831Z,102500.44
2023-04-08T17:42:09.077Z,102494.59
2023-04-08T17:44:37.374Z,102504.53
2023-04-08T17:47:05.193Z,102497.25
2023-04-08T17:49:32.995Z,102494.66
2023-04-08T17:52:00.849Z,102496.13
2023-04-08T17:54:31.458Z,102493.50
2023-04-08T17:56:59.246Z,102499.22
2023-04-08T17:59:27.035Z,102494.09
2023-04-08T18:01:54.997Z,102500.50
2023-04-08T18:04:23.015Z,102505.84
2023-04-08T18:06:50.826Z,102501.13
2023-04-08T18:09:18.657Z,102504.25
2023-04-08T18:11:47.781Z,102503.47
2023-04-08T18:14:16.499Z,102499.50
2023-04-08T18:16:44.433Z,102498.88
2023-04-08T18:19:13.540Z,102507.66
2023-04-08T18:21:41.367Z,102507.31
2023-04-08T18:24:09.425Z,102507.31
2023-04-08T18:26:37.301Z,102506.44
2023-04-08T18:29:06.648Z,102515.56
2023-04-08T18:31:34.613Z,102504.38
2023-04-08T18:34:03.140Z,102504.06
2023-04-08T18:36:31.625Z,102514.81
2023-04-08T18:38:59.438Z,102519.22
2023-04-08T18:41:28.940Z,102524.94
2023-04-08T18:43:56.704Z,102524.25
2023-04-08T18:46:25.980Z,102517.78
2023-04-08T18:48:53.813Z,102520.00
2023-04-08T18:51:21.613Z,102528.38
2023-04-08T18:53:49.857Z,102522.88
2023-04-08T18:56:18.359Z,102523.78
2023-04-08T18:58:47.148Z,102537.84
2023-04-08T19:01:16.164Z,102532.53
2023-04-08T19:03:45.822Z,102533.47
2023-04-08T19:06:14.531Z,102533.13
2023-04-08T19:08:42.477Z,102541.25
2023-04-08T19:11:10.320Z,102542.78
2023-04-08T19:13:38.076Z,102546.63
2023-04-08T19:16:06.488Z,102539.38
2023-04-08T19:18:34.345Z,102539.81
2023-04-08T19:21:03.563Z,102546.31
2023-04-08T19:23:32.098Z,102546.97
2023-04-08T19:25:59.854Z,102548.50
2023-04-08T19:28:27.698Z,102556.28
2023-04-08T19:30:55.519Z,102555.53
2023-04-08T19:33:23.675Z,102562.56
2023-04-08T19:35:51.520Z,102557.63
2023-04-08T19:38:20.842Z,102560.91
2023-04-08T19:40:48.881Z,102559.13
2023-04-08T19:43:17.611Z,102562.06
2023-04-08T19:45:45.459Z,102555.59
2023-04-08T19:48:13.203Z,102558.44
2023-04-08T19:50:41.386Z,102565.34
2023-04-08T19:53:09.179Z,102566.47
2023-04-08T19:55:38.367Z,102562.94
2023-04-08T19:58:06.884Z,102563.16
2023-04-08T20:00:37.235Z,102568.50
2023-04-08T20:03:05.869Z,102571.09
2023-04-08T20:05:33.963Z,102570.44
2023-04-08T20:08:02.227Z,102576.50
2023-04-08T20:10:31.645Z,102570.63
2023-04-08T20:13:00.806Z,102575.78
2023-04-08T20:15:28.648Z,102574.66
2023-04-08T20:17:56.520Z,102576.03
2023-04-08T20:20:26.694Z,102571.84
2023-04-08T20:22:55.476Z,102572.34
2023-04-08T20:25:23.728Z,102574.22
2023-04-08T20:27:52.198Z,102579.81
2023-04-08T20:30:21.420Z,102581.25
2023-04-08T20:32:49.277Z,102583.56
2023-04-08T20:35:17.441Z,102582.44
2023-04-08T20:37:46.177Z,102585.97
2023-04-08T20:40:15.867Z,102592.28
2023-04-08T20:42:45.530Z,102599.03
2023-04-08T20:45:13.396Z,102599.22
2023-04-08T20:47:44.531Z,102594.00
2023-04-08T20:50:13.215Z,102596.91
2023-04-08T20:52:41.124Z,102591.91
2023-04-08T20:55:09.906Z,102591.72
2023-04-08T20:57:37.699Z,102598.06
2023-04-08T21:00:06.566Z,102603.13
2023-04-08T21:02:34.555Z,102588.31
2023-04-08T21:05:04.106Z,102594.00
2023-04-08T21:07:31.897Z,102595.19
2023-04-08T21:09:59.967Z,102594.25
2023-04-08T21:12:27.772Z,102599.06
2023-04-08T21:14:55.594Z,102599.31
2023-04-08T21:17:23.423Z,102602.03
2023-04-08T21:19:51.958Z,102606.78
2023-04-08T21:22:21.104Z,102605.06
2023-04-08T21:24:48.874Z,102604.25
2023-04-08T21:27:16.646Z,102612.19
2023-04-08T21:29:44.456Z,102593.31
2023-04-08T21:32:12.478Z,102600.41
2023-04-08T21:34:40.992Z,102601.16
2023-04-08T21:37:08.791Z,102597.81
2023-04-08T21:39:37.992Z,102602.19
2023-04-08T21:42:05.947Z,102594.53
2023-04-08T21:44:33.757Z,102590.28
2023-04-08T21:47:02.140Z,102589.56
2023-04-08T21:49:30.712Z,102592.25
2023-04-08T21:51:58.898Z,102592.59
2023-04-08T21:54:26.710Z,102589.56
2023-04-08T21:56:56.621Z,102597.97
2023-04-08T21:59:24.409Z,102600.66
2023-04-08T22:01:52.306Z,102600.25
2023-04-08T22:04:20.507Z,102600.91
2023-04-08T22:06:49.353Z,102598.88
2023-04-08T22:09:17.286Z,102603.72
2023-04-08T22:11:45.080Z,102603.06
2023-04-08T22:14:15.391Z,102594.06
2023-04-08T22:16:43.280Z,102604.75
2023-04-08T22:19:11.175Z,102608.19
2023-04-08T22:21:38.947Z,102604.94
2023-04-08T22:24:07.050Z,102601.91
2023-04-08T22:26:34.820Z,102595.63
2023-04-08T22:29:02.727Z,102598.03
2023-04-08T22:31:31.840Z,102601.56
2023-04-08T22:33:59.592Z,102611.38
2023-04-08T22:36:27.453Z,102597.84
2023-04-08T22:38:55.445Z,102600.22
2023-04-08T22:41:24.578Z,102607.22
2023-04-08T22:43:52.409Z,102600.28
2023-04-08T22:46:20.381Z,102603.84
2023-04-08T22:48:50.174Z,102602.31
2023-04-08T22:51:18.090Z,102601.56
2023-04-08T22:53:46.060Z,102607.88
2023-04-08T22:56:13.827Z,102603.66
2023-04-08T22:58:41.633Z,102598.56
2023-04-08T23:01:13.538Z,102595.81
2023-04-08T23:03:41.641Z,102595.06
2023-04-08T23:06:11.471Z,102591.09
2023-04-08T23:08:39.753Z,102597.28
2023-04-08T23:11:07.980Z,102596.13
2023-04-08T23:13:35.998Z,102601.56
2023-04-08T23:16:03.906Z,102598.50
2023-04-08T23:18:31.743Z,102596.59
2023-04-08T23:20:59.540Z,102607.09
2023-04-08T23:23:28.865Z,102596.22
2023-04-08T23:25:56.720Z,102596.22
2023-04-08T23:28:24.862Z,102595.81
2023-04-08T23:30:52.655Z,102593.16
2023-04-08T23:33:20.549Z,102596.66
2023-04-08T23:35:48.383Z,102594.28
2023-04-08T23:38:16.204Z,102586.88
2023-04-08T23:40:45.342Z,102594.59
2023-04-08T23:43:13.111Z,102589.13
2023-04-08T23:45:40.896Z,102591.03
2023-04-08T23:48:10.155Z,102594.56
2023-04-08T23:50:38.122Z,102591.09
2023-04-08T23:53:05.949Z,102585.19
2023-04-08T23:55:33.718Z,102583.66
2023-04-08T23:58:02.872Z,102577.84
